createdAt,value
2019-02-23T00:02:00.798Z,9.23
2019-02-23T00:04:28.989Z,9.20
2019-02-23T00:06:57.274Z,8.80
2019-02-23T00:09:25.538Z,8.57
2019-02-23T00:11:53.822Z,9.60
2019-02-23T00:14:22.081Z,9.53
2019-02-23T00:16:50.312Z,6.87
2019-02-23T00:19:24.850Z,7.83
2019-02-23T00:21:48.409Z,12.07
2019-02-23T00:24:16.644Z,8.30
2019-02-23T00:26:44.905Z,11.03
2019-02-23T00:29:13.129Z,12.07
2019-02-23T00:31:41.394Z,9.10
2019-02-23T00:34:09.610Z,8.13
2019-02-23T00:36:37.876Z,8.53
2019-02-23T00:39:06.335Z,8.13
2019-02-23T00:41:34.586Z,9.27
2019-02-23T00:44:02.790Z,8.90
2019-02-23T00:46:31.111Z,9.47
2019-02-23T00:48:59.347Z,10.03
2019-02-23T00:51:27.645Z,9.90
2019-02-23T00:53:55.906Z,8.40
2019-02-23T00:56:24.209Z,9.30
2019-02-23T00:58:52.471Z,8.50
2019-02-23T01:01:20.753Z,11.40
2019-02-23T01:03:48.941Z,10.70
2019-02-23T01:06:17.269Z,9.07
2019-02-23T01:08:45.550Z,8.40
2019-02-23T01:11:13.813Z,9.30
2019-02-23T01:13:42.029Z,9.33
2019-02-23T01:16:10.354Z,7.77
2019-02-23T01:18:38.715Z,9.20
2019-02-23T01:21:06.981Z,9.90
2019-02-23T01:23:35.263Z,6.93
2019-02-23T01:26:03.529Z,7.07
2019-02-23T01:28:31.785Z,11.30
2019-02-23T01:31:00.016Z,10.17
2019-02-23T01:33:28.295Z,13.03
2019-02-23T01:35:56.558Z,9.30
2019-02-23T01:38:24.881Z,9.30
2019-02-23T01:40:53.241Z,13.63
2019-02-23T01:43:21.429Z,12.60
2019-02-23T01:45:49.641Z,9.40
2019-02-23T01:48:17.902Z,11.90
2019-02-23T01:50:46.199Z,11.27
2019-02-23T01:53:14.392Z,12.77
2019-02-23T01:55:42.649Z,12.37
2019-02-23T01:58:10.862Z,9.87
2019-02-23T02:00:39.606Z,11.90
2019-02-23T02:03:07.962Z,11.13
2019-02-23T02:05:36.305Z,10.83
2019-02-23T02:08:04.522Z,10.00
2019-02-23T02:10:32.783Z,11.63
2019-02-23T02:13:01.170Z,10.70
2019-02-23T02:15:29.439Z,10.20
2019-02-23T02:17:57.735Z,11.07
2019-02-23T02:20:26.010Z,10.57
2019-02-23T02:22:54.306Z,12.80
2019-02-23T02:25:22.496Z,13.07
2019-02-23T02:27:50.853Z,11.40
2019-02-23T02:30:19.047Z,9.43
2019-02-23T02:32:47.402Z,9.67
2019-02-23T02:35:15.670Z,9.90
2019-02-23T02:37:43.937Z,12.70
2019-02-23T02:40:12.230Z,10.93
2019-02-23T02:42:40.495Z,13.33
2019-02-23T02:45:09.793Z,11.87
2019-02-23T02:47:38.053Z,12.47
2019-02-23T02:50:07.356Z,11.60
2019-02-23T02:52:35.627Z,14.67
2019-02-23T02:55:04.495Z,12.37
2019-02-23T02:57:32.767Z,12.23
2019-02-23T03:00:01.124Z,12.83
2019-02-23T03:02:29.392Z,13.93
2019-02-23T03:04:59.227Z,11.00
2019-02-23T03:07:27.490Z,13.47
2019-02-23T03:09:55.686Z,12.40
2019-02-23T03:12:23.973Z,15.53
2019-02-23T03:14:52.216Z,11.50
2019-02-23T03:17:20.478Z,14.10
2019-02-23T03:19:48.673Z,15.00
2019-02-23T03:22:16.957Z,14.63
2019-02-23T03:24:45.158Z,11.23
2019-02-23T03:27:13.445Z,11.67
2019-02-23T03:29:41.802Z,13.70
2019-02-23T03:32:10.107Z,11.90
2019-02-23T03:34:38.372Z,13.60
2019-02-23T03:37:06.663Z,12.50
2019-02-23T03:39:34.922Z,14.20
2019-02-23T03:42:03.182Z,14.27
2019-02-23T03:44:31.400Z,12.93
2019-02-23T03:46:59.678Z,16.40
2019-02-23T03:49:27.962Z,17.60
2019-02-23T03:51:56.160Z,13.90
2019-02-23T03:54:24.517Z,12.43
2019-02-23T03:56:52.710Z,13.23
2019-02-23T03:59:22.541Z,13.87
2019-02-23T04:01:50.878Z,13.27
2019-02-23T04:04:19.070Z,14.33
2019-02-23T04:06:47.365Z,15.17
2019-02-23T04:09:15.637Z,13.10
2019-02-23T04:11:43.936Z,14.20
2019-02-23T04:14:12.210Z,13.80
2019-02-23T04:16:40.499Z,15.53
2019-02-23T04:19:08.766Z,12.80
2019-02-23T04:21:37.058Z,13.67
2019-02-23T04:24:05.258Z,14.13
2019-02-23T04:26:33.562Z,13.80
2019-02-23T04:29:01.826Z,15.00
2019-02-23T04:31:30.054Z,16.33
2019-02-23T04:33:58.329Z,13.60
2019-02-23T04:36:26.626Z,13.83
2019-02-23T04:38:54.902Z,15.07
2019-02-23T04:41:23.222Z,17.17
2019-02-23T04:43:51.490Z,15.53
2019-02-23T04:46:19.757Z,16.57
2019-02-23T04:48:48.056Z,18.53
2019-02-23T04:51:16.337Z,13.33
2019-02-23T04:53:44.690Z,16.63
2019-02-23T04:56:12.963Z,14.77
2019-02-23T04:58:41.262Z,14.10
2019-02-23T05:01:09.525Z,13.60
2019-02-23T05:03:37.830Z,14.80
2019-02-23T05:06:06.094Z,15.83
2019-02-23T05:08:34.398Z,13.90
2019-02-23T05:11:02.669Z,16.30
2019-02-23T05:13:30.989Z,17.50
2019-02-23T05:15:59.191Z,16.50
2019-02-23T05:18:27.464Z,15.13
2019-02-23T05:20:55.829Z,18.63
2019-02-23T05:23:24.106Z,14.63
2019-02-23T05:25:52.325Z,17.30
2019-02-23T05:28:20.602Z,15.07
2019-02-23T05:30:48.897Z,16.53
2019-02-23T05:33:17.166Z,15.77
2019-02-23T05:35:45.466Z,15.83
2019-02-23T05:38:13.739Z,14.93
2019-02-23T05:40:42.038Z,17.30
2019-02-23T05:43:10.230Z,17.43
2019-02-23T05:45:38.502Z,15.90
2019-02-23T05:48:07.684Z,16.47
2019-02-23T05:50:35.962Z,16.97
2019-02-23T05:53:04.274Z,20.60
2019-02-23T05:55:32.530Z,16.97
2019-02-23T05:58:00.754Z,19.20
2019-02-23T06:00:28.953Z,16.00
2019-02-23T06:02:57.266Z,17.47
2019-02-23T06:05:25.539Z,23.27
2019-02-23T06:07:53.842Z,17.17
2019-02-23T06:10:22.114Z,15.73
2019-02-23T06:12:50.338Z,18.20
2019-02-23T06:15:18.547Z,19.57
2019-02-23T06:17:46.815Z,15.97
2019-02-23T06:20:15.122Z,16.27
2019-02-23T06:22:43.410Z,19.67
2019-02-23T06:25:11.712Z,15.40
2019-02-23T06:27:39.983Z,18.33
2019-02-23T06:30:09.751Z,18.53
2019-02-23T06:32:38.026Z,16.57
2019-02-23T06:35:07.189Z,14.10
2019-02-23T06:37:35.395Z,24.93
2019-02-23T06:40:04.180Z,17.37
2019-02-23T06:42:32.459Z,19.60
2019-02-23T06:45:00.731Z,19.10
2019-02-23T06:47:29.027Z,16.90
2019-02-23T06:49:57.307Z,17.63
2019-02-23T06:52:25.596Z,15.63
2019-02-23T06:54:53.867Z,15.77
2019-02-23T06:57:22.174Z,21.10
2019-02-23T06:59:50.447Z,16.93
2019-02-23T07:02:18.742Z,16.70
2019-02-23T07:04:47.931Z,19.60
2019-02-23T07:07:16.259Z,17.63
2019-02-23T07:09:44.530Z,17.77
2019-02-23T07:12:13.639Z,17.90
2019-02-23T07:14:41.931Z,52.20
2019-02-23T07:17:10.202Z,32.97
2019-02-23T07:19:38.497Z,20.07
2019-02-23T07:22:15.191Z,20.07
2019-02-23T07:24:36.638Z,19.37
2019-02-23T07:27:04.906Z,18.73
2019-02-23T07:29:33.130Z,22.40
2019-02-23T07:32:01.394Z,18.57
2019-02-23T07:34:29.621Z,15.20
2019-02-23T07:36:57.898Z,18.63
2019-02-23T07:39:26.166Z,20.47
2019-02-23T07:41:54.387Z,19.67
2019-02-23T07:44:22.846Z,18.60
2019-02-23T07:46:51.145Z,18.17
2019-02-23T07:49:19.408Z,16.27
2019-02-23T07:51:47.709Z,17.73
2019-02-23T07:54:16.166Z,18.50
2019-02-23T07:56:44.391Z,18.10
2019-02-23T07:59:12.667Z,17.20
2019-02-23T08:01:40.967Z,18.60
2019-02-23T08:04:09.229Z,18.23
2019-02-23T08:06:37.517Z,17.20
2019-02-23T08:09:05.846Z,18.00
2019-02-23T08:11:34.071Z,17.40
2019-02-23T08:14:02.369Z,15.73
2019-02-23T08:16:30.644Z,14.80
2019-02-23T08:18:59.255Z,15.93
2019-02-23T08:21:27.505Z,14.53
2019-02-23T08:23:55.739Z,18.10
2019-02-23T08:26:24.010Z,15.70
2019-02-23T08:28:52.482Z,16.20
2019-02-23T08:31:20.678Z,15.40
2019-02-23T08:33:48.906Z,14.13
2019-02-23T08:36:17.166Z,12.20
2019-02-23T08:38:45.442Z,14.87
2019-02-23T08:41:13.742Z,19.30
2019-02-23T08:43:41.938Z,13.83
2019-02-23T08:46:10.234Z,15.50
2019-02-23T08:48:38.498Z,12.00
2019-02-23T08:51:06.718Z,13.50
2019-02-23T08:53:34.946Z,13.00
2019-02-23T08:56:03.279Z,12.10
2019-02-23T08:58:31.542Z,12.77
2019-02-23T09:00:59.830Z,12.83
2019-02-23T09:03:28.020Z,12.17
2019-02-23T09:05:56.282Z,12.80
2019-02-23T09:08:24.497Z,10.07
2019-02-23T09:10:52.690Z,12.30
2019-02-23T09:13:20.907Z,10.87
2019-02-23T09:15:49.177Z,10.97
2019-02-23T09:18:17.471Z,11.00
2019-02-23T09:20:45.729Z,11.03
2019-02-23T09:23:13.941Z,9.80
2019-02-23T09:25:42.201Z,10.50
2019-02-23T09:28:10.527Z,9.63
2019-02-23T09:30:38.790Z,9.73
2019-02-23T09:33:07.057Z,9.50
2019-02-23T09:35:35.269Z,9.63
2019-02-23T09:38:03.535Z,7.80
2019-02-23T09:40:31.824Z,8.23
2019-02-23T09:43:00.342Z,7.17
2019-02-23T09:45:28.638Z,9.20
2019-02-23T09:47:56.829Z,11.40
2019-02-23T09:50:25.121Z,7.77
2019-02-23T09:52:53.377Z,7.40
2019-02-23T09:55:21.666Z,7.23
2019-02-23T09:57:49.862Z,7.07
2019-02-23T10:00:18.136Z,7.83
2019-02-23T10:02:46.428Z,7.27
2019-02-23T10:05:14.682Z,8.80
2019-02-23T10:07:42.894Z,6.97
2019-02-23T10:10:11.353Z,7.13
2019-02-23T10:12:39.641Z,8.90
2019-02-23T10:15:09.367Z,8.30
2019-02-23T10:17:37.654Z,7.50
2019-02-23T10:20:07.490Z,10.13
2019-02-23T10:22:35.678Z,7.63
2019-02-23T10:25:04.533Z,6.77
2019-02-23T10:27:32.794Z,8.50
2019-02-23T10:30:01.007Z,6.77
2019-02-23T10:32:29.542Z,7.00
2019-02-23T10:34:57.758Z,8.07
2019-02-23T10:37:26.018Z,6.30
2019-02-23T10:39:54.307Z,6.60
2019-02-23T10:42:22.493Z,6.63
2019-02-23T10:44:50.711Z,6.37
2019-02-23T10:47:18.974Z,8.03
2019-02-23T10:49:47.303Z,6.60
2019-02-23T10:52:15.557Z,7.17
2019-02-23T10:54:43.889Z,11.30
2019-02-23T10:57:12.103Z,6.90
2019-02-23T10:59:40.362Z,6.63
2019-02-23T11:02:08.727Z,6.43
2019-02-23T11:04:36.982Z,5.87
2019-02-23T11:07:05.343Z,6.07
2019-02-23T11:09:33.884Z,7.90
2019-02-23T11:12:02.170Z,7.13
2019-02-23T11:14:30.432Z,6.43
2019-02-23T11:16:58.698Z,6.97
2019-02-23T11:19:27.054Z,6.63
2019-02-23T11:21:55.389Z,6.97
2019-02-23T11:24:23.607Z,7.47
2019-02-23T11:26:53.562Z,5.73
2019-02-23T11:29:21.850Z,7.77
2019-02-23T11:31:50.119Z,6.67
2019-02-23T11:34:18.477Z,6.03
2019-02-23T11:36:46.669Z,7.03
2019-02-23T11:39:14.949Z,5.43
2019-02-23T11:41:43.214Z,6.63
2019-02-23T11:44:11.426Z,6.70
2019-02-23T11:46:39.688Z,6.90
2019-02-23T11:49:08.347Z,11.10
2019-02-23T11:51:36.637Z,7.77
2019-02-23T11:54:04.930Z,6.23
2019-02-23T11:56:33.193Z,4.40
2019-02-23T11:59:01.641Z,4.47
2019-02-23T12:01:30.758Z,5.97
2019-02-23T12:03:59.022Z,5.70
2019-02-23T12:06:30.172Z,6.30
2019-02-23T12:08:59.001Z,3.93
2019-02-23T12:11:29.107Z,3.73
2019-02-23T12:13:58.389Z,4.20
2019-02-23T12:16:27.775Z,3.13
2019-02-23T12:18:56.279Z,3.50
2019-02-23T12:21:24.847Z,2.87
2019-02-23T12:24:05.427Z,8.30
2019-02-23T12:26:25.786Z,3.30
2019-02-23T12:28:55.966Z,3.13
2019-02-23T12:31:24.237Z,3.47
2019-02-23T12:33:54.414Z,3.20
2019-02-23T12:36:22.678Z,3.17
2019-02-23T12:38:52.143Z,3.30
2019-02-23T12:41:21.474Z,3.20
2019-02-23T12:43:50.689Z,2.90
2019-02-23T12:46:20.415Z,2.80
2019-02-23T12:48:48.967Z,2.87
2019-02-23T12:51:18.241Z,3.50
2019-02-23T12:53:46.646Z,3.40
2019-02-23T12:56:15.159Z,3.87
2019-02-23T12:58:44.794Z,2.60
2019-02-23T13:01:13.070Z,3.30
2019-02-23T13:03:43.289Z,2.97
2019-02-23T13:06:14.237Z,5.23
2019-02-23T13:09:00.742Z,4.30
2019-02-23T13:11:29.118Z,4.00
2019-02-23T13:14:04.614Z,2.73
2019-02-23T13:16:36.043Z,2.53
2019-02-23T13:19:13.197Z,3.70
2019-02-23T13:21:43.261Z,3.33
2019-02-23T13:24:13.990Z,3.10
2019-02-23T13:26:52.459Z,3.07
2019-02-23T13:29:38.826Z,3.73
2019-02-23T13:32:08.658Z,2.83
2019-02-23T13:34:38.456Z,6.83
2019-02-23T13:37:10.958Z,3.23
2019-02-23T13:39:40.788Z,2.90
2019-02-23T13:42:10.585Z,2.57
2019-02-23T13:44:40.754Z,3.53
2019-02-23T13:47:16.591Z,3.30
2019-02-23T13:49:48.122Z,4.53
2019-02-23T13:52:19.642Z,2.60
2019-02-23T13:55:02.248Z,2.83
2019-02-23T13:57:47.095Z,2.80
2019-02-23T14:00:25.647Z,2.50
2019-02-23T14:03:00.054Z,2.53
2019-02-23T14:05:44.950Z,3.27
2019-02-23T14:08:14.769Z,3.60
2019-02-23T14:10:44.591Z,3.70
2019-02-23T14:13:14.386Z,3.67
2019-02-23T14:16:03.821Z,4.10
2019-02-23T14:18:33.550Z,3.63
2019-02-23T14:21:03.373Z,6.23
2019-02-23T14:23:42.126Z,3.53
2019-02-23T14:26:28.105Z,5.00
2019-02-23T14:29:04.553Z,3.20
2019-02-23T14:31:42.748Z,3.10
2019-02-23T14:34:15.482Z,3.57
2019-02-23T14:36:48.265Z,3.10
2019-02-23T14:39:24.952Z,3.30
2019-02-23T14:41:54.989Z,7.47
2019-02-23T14:44:36.823Z,3.60
2019-02-23T14:47:09.662Z,5.33
2019-02-23T14:49:50.031Z,4.20
2019-02-23T14:52:19.857Z,4.07
2019-02-23T14:55:00.433Z,3.33
2019-02-23T14:57:28.595Z,4.03
2019-02-23T14:59:58.421Z,3.27
2019-02-23T15:02:37.306Z,6.13
2019-02-23T15:05:23.624Z,4.17
2019-02-23T15:07:53.422Z,4.67
2019-02-23T15:10:26.186Z,5.97
2019-02-23T15:13:12.780Z,3.50
2019-02-23T15:15:51.257Z,3.40
2019-02-23T15:18:29.937Z,4.00
2019-02-23T15:21:05.497Z,3.73
2019-02-23T15:23:51.779Z,4.60
2019-02-23T15:26:30.626Z,4.87
2019-02-23T15:29:09.251Z,4.10
2019-02-23T15:31:48.413Z,3.80
2019-02-23T15:34:23.830Z,12.67
2019-02-23T15:37:00.925Z,6.63
2019-02-23T15:39:47.429Z,5.83
2019-02-23T15:42:23.326Z,4.07
2019-02-23T15:44:56.042Z,7.13
2019-02-23T15:47:25.876Z,6.00
2019-02-23T15:49:55.897Z,9.47
2019-02-23T15:52:24.350Z,26.50
2019-02-23T15:54:52.592Z,9.17
2019-02-23T15:57:21.378Z,7.83
2019-02-23T15:59:49.827Z,12.20
2019-02-23T16:02:18.989Z,10.73
2019-02-23T16:04:47.176Z,6.00
2019-02-23T16:07:16.479Z,6.57
2019-02-23T16:09:44.770Z,8.33
2019-02-23T16:12:12.954Z,8.20
2019-02-23T16:14:41.245Z,21.50
2019-02-23T16:17:09.446Z,75.27
2019-02-23T16:19:37.791Z,45.27
2019-02-23T16:22:06.080Z,32.03
2019-02-23T16:24:34.362Z,18.20
2019-02-23T16:27:02.898Z,16.27
2019-02-23T16:29:31.085Z,11.47
2019-02-23T16:31:59.306Z,6.80
2019-02-23T16:34:27.580Z,10.10
2019-02-23T16:36:57.567Z,7.33
2019-02-23T16:39:25.833Z,7.60
2019-02-23T16:41:54.115Z,8.00
2019-02-23T16:44:22.387Z,7.20
2019-02-23T16:46:50.675Z,3.77
2019-02-23T16:49:18.867Z,3.87
2019-02-23T16:51:47.154Z,4.37
2019-02-23T16:54:15.418Z,6.40
2019-02-23T16:56:43.686Z,4.23
2019-02-23T16:59:11.974Z,5.87
2019-02-23T17:01:40.234Z,6.63
2019-02-23T17:04:08.530Z,5.00
2019-02-23T17:06:36.793Z,3.73
2019-02-23T17:09:05.245Z,5.37
2019-02-23T17:11:33.509Z,6.07
2019-02-23T17:14:01.804Z,6.90
2019-02-23T17:16:30.062Z,4.93
2019-02-23T17:18:58.354Z,6.13
2019-02-23T17:21:26.542Z,6.30
2019-02-23T17:23:54.832Z,6.37
2019-02-23T17:26:23.097Z,10.87
2019-02-23T17:28:51.352Z,9.27
2019-02-23T17:31:19.614Z,6.80
2019-02-23T17:33:47.874Z,6.80
2019-02-23T17:36:16.170Z,8.23
2019-02-23T17:38:44.860Z,6.73
2019-02-23T17:41:13.221Z,6.10
2019-02-23T17:43:41.886Z,6.90
2019-02-23T17:46:10.129Z,4.30
2019-02-23T17:48:38.396Z,8.47
2019-02-23T17:51:06.722Z,6.83
2019-02-23T17:53:34.986Z,5.33
2019-02-23T17:56:03.249Z,4.23
2019-02-23T17:58:31.467Z,5.10
2019-02-23T18:00:59.722Z,7.70
2019-02-23T18:03:28.009Z,4.00
2019-02-23T18:05:56.194Z,4.83
2019-02-23T18:08:24.497Z,6.63
2019-02-23T18:10:52.685Z,6.83
2019-02-23T18:13:20.900Z,5.50
2019-02-23T18:15:49.161Z,6.00
2019-02-23T18:18:17.417Z,5.20
2019-02-23T18:20:45.630Z,3.73
2019-02-23T18:23:13.890Z,3.90
2019-02-23T18:25:42.101Z,4.80
2019-02-23T18:28:10.286Z,3.93
2019-02-23T18:30:38.581Z,4.27
2019-02-23T18:33:06.838Z,8.27
2019-02-23T18:35:35.054Z,5.70
2019-02-23T18:38:03.309Z,5.27
2019-02-23T18:40:31.581Z,5.00
2019-02-23T18:42:59.870Z,5.80
2019-02-23T18:45:28.064Z,5.97
2019-02-23T18:47:56.354Z,5.93
2019-02-23T18:50:24.613Z,5.17
2019-02-23T18:52:52.839Z,5.47
2019-02-23T18:55:21.098Z,4.90
2019-02-23T18:57:49.309Z,3.73
2019-02-23T19:00:24.153Z,6.47
2019-02-23T19:02:47.431Z,3.47
2019-02-23T19:05:15.689Z,5.77
2019-02-23T19:07:43.979Z,5.13
2019-02-23T19:10:12.835Z,4.23
2019-02-23T19:12:41.122Z,4.67
2019-02-23T19:15:12.913Z,4.87
2019-02-23T19:17:41.546Z,6.50
2019-02-23T19:20:11.267Z,6.70
2019-02-23T19:22:39.537Z,4.57
2019-02-23T19:25:08.699Z,6.73
2019-02-23T19:27:36.953Z,7.17
2019-02-23T19:30:07.055Z,7.83
2019-02-23T19:32:35.381Z,9.23
2019-02-23T19:35:04.234Z,8.73
2019-02-23T19:37:32.753Z,7.60
2019-02-23T19:40:00.973Z,6.60
2019-02-23T19:42:29.234Z,118.23
2019-02-23T19:44:57.457Z,50.07
2019-02-23T19:47:25.902Z,30.10
2019-02-23T19:49:55.293Z,6.73
2019-02-23T19:52:23.525Z,7.43
2019-02-23T19:54:51.718Z,6.53
2019-02-23T19:57:20.001Z,4.47
2019-02-23T19:59:48.267Z,4.90
2019-02-23T20:02:16.546Z,4.23
2019-02-23T20:04:44.814Z,5.37
2019-02-23T20:07:13.102Z,8.43
2019-02-23T20:09:41.353Z,4.20
2019-02-23T20:12:09.582Z,5.50
2019-02-23T20:14:37.949Z,4.33
2019-02-23T20:17:06.134Z,5.13
2019-02-23T20:19:34.421Z,5.30
2019-02-23T20:22:02.610Z,5.50
2019-02-23T20:24:30.903Z,5.80
2019-02-23T20:26:59.153Z,4.70
2019-02-23T20:29:27.446Z,3.70
2019-02-23T20:31:55.630Z,3.23
2019-02-23T20:34:24.000Z,4.40
2019-02-23T20:36:52.297Z,5.13
2019-02-23T20:39:20.563Z,4.40
2019-02-23T20:41:48.854Z,3.47
2019-02-23T20:44:17.045Z,3.03
2019-02-23T20:46:45.430Z,3.83
2019-02-23T20:49:13.691Z,3.53
2019-02-23T20:51:41.975Z,3.00
2019-02-23T20:54:10.162Z,4.03
2019-02-23T20:56:38.393Z,5.23
2019-02-23T20:59:06.657Z,3.70
2019-02-23T21:01:34.967Z,6.83
2019-02-23T21:04:03.222Z,4.20
2019-02-23T21:06:31.490Z,4.07
2019-02-23T21:08:59.785Z,3.37
2019-02-23T21:11:28.050Z,3.87
2019-02-23T21:13:56.337Z,2.80
2019-02-23T21:16:24.525Z,3.40
2019-02-23T21:18:52.826Z,2.53
2019-02-23T21:21:21.083Z,3.67
2019-02-23T21:23:49.343Z,3.47
2019-02-23T21:26:17.632Z,4.20
2019-02-23T21:28:45.891Z,3.50
2019-02-23T21:31:14.753Z,4.50
2019-02-23T21:33:42.937Z,3.67
2019-02-23T21:36:11.150Z,3.07
2019-02-23T21:38:39.338Z,3.90
2019-02-23T21:41:07.638Z,4.90
2019-02-23T21:43:35.826Z,6.57
2019-02-23T21:46:04.117Z,3.57
2019-02-23T21:48:32.377Z,2.23
2019-02-23T21:51:00.590Z,2.77
2019-02-23T21:53:28.852Z,3.20
2019-02-23T21:55:57.115Z,2.47
2019-02-23T21:58:26.622Z,4.30
2019-02-23T22:00:54.866Z,4.30
2019-02-23T22:03:23.154Z,2.63
2019-02-23T22:05:51.418Z,2.30
2019-02-23T22:08:19.703Z,2.93
2019-02-23T22:10:47.965Z,1.90
2019-02-23T22:13:16.324Z,2.97
2019-02-23T22:15:44.593Z,2.10
2019-02-23T22:18:12.881Z,2.90
2019-02-23T22:20:41.133Z,2.73
2019-02-23T22:23:09.422Z,4.53
2019-02-23T22:25:37.682Z,2.83
2019-02-23T22:28:05.942Z,2.80
2019-02-23T22:30:34.150Z,4.03
2019-02-23T22:33:02.413Z,2.60
2019-02-23T22:35:30.950Z,3.73
2019-02-23T22:37:59.214Z,2.20
2019-02-23T22:40:27.501Z,2.33
2019-02-23T22:42:55.768Z,2.40
2019-02-23T22:45:24.056Z,3.47
2019-02-23T22:47:52.318Z,3.23
2019-02-23T22:50:20.605Z,2.23
2019-02-23T22:52:48.798Z,2.30
2019-02-23T22:55:17.057Z,3.40
2019-02-23T22:57:45.272Z,2.50
2019-02-23T23:00:15.170Z,2.60
2019-02-23T23:02:43.526Z,2.20
2019-02-23T23:05:11.963Z,3.83
2019-02-23T23:07:40.256Z,3.23
2019-02-23T23:10:08.509Z,2.10
2019-02-23T23:12:36.742Z,2.33
2019-02-23T23:15:06.265Z,2.50
2019-02-23T23:17:34.458Z,3.53
2019-02-23T23:20:02.746Z,1.77
2019-02-23T23:22:31.012Z,1.97
2019-02-23T23:24:59.298Z,2.17
2019-02-23T23:27:27.561Z,2.60
2019-02-23T23:29:55.774Z,1.93
2019-02-23T23:32:23.970Z,2.37
2019-02-23T23:34:52.260Z,2.23
2019-02-23T23:37:20.523Z,2.23
2019-02-23T23:39:48.812Z,3.07
2019-02-23T23:42:17.616Z,2.50
2019-02-23T23:44:45.885Z,3.17
2019-02-23T23:47:14.078Z,3.10
2019-02-23T23:49:42.354Z,4.50
2019-02-23T23:52:10.643Z,3.10
2019-02-23T23:54:38.902Z,3.30
2019-02-23T23:57:07.194Z,2.93
2019-02-23T23:59:35.412Z,3.33
